Time;durP1;ratioP1;P1;durP2;ratioP2;P2;SDS_P1;SDS_P2;PMS_P1;PMS_P2;Temp;Humidity;BMP_temperature;BMP_pressure;BME280_temperature;BME280_humidity;BME280_pressure;Samples;Min_cycle;Max_cycle;Signal;HPM_P1;HPM_P2
2021/09/03 00:02:41;;;;;;;;;2.25;2.25;;;;;15.75;68.07;100813.88;5014323;28;8868;-71
2021/09/03 00:05:37;;;;;;;;;3.00;3.00;;;;;15.79;68.89;100797.22;5014695;28;8866;-71
2021/09/03 00:08:32;;;;;;;;;1.00;1.00;;;;;15.97;70.98;100809.63;4994932;28;8897;-72
2021/09/03 00:11:44;;;;;;;;;1.75;1.75;;;;;15.97;69.39;100815.19;4995030;28;8888;-71
2021/09/03 00:14:39;;;;;;;;;2.00;2.00;;;;;15.78;69.63;100835.47;4995067;28;8862;-72
2021/09/03 00:17:36;;;;;;;;;2.75;2.75;;;;;15.76;68.13;100835.03;4995004;28;8912;-71
2021/09/03 00:20:31;;;;;;;;;2.75;2.00;;;;;15.85;69.33;100827.25;4994967;28;8835;-71
2021/09/03 00:23:28;;;;;;;;;2.00;2.00;;;;;15.88;66.75;100842.47;4996271;28;8858;-71
2021/09/03 00:26:23;;;;;;;;;2.00;2.00;;;;;15.89;69.23;100848.88;4994860;28;8919;-71
2021/09/03 00:29:19;;;;;;;;;2.75;2.75;;;;;15.64;67.87;100840.72;4994640;28;8882;-72
2021/09/03 00:32:14;;;;;;;;;4.00;4.00;;;;;15.63;68.45;100841.88;4994604;28;8994;-72
2021/09/03 00:35:11;;;;;;;;;2.00;2.00;;;;;15.33;67.41;100838.69;4996129;28;8940;-71
2021/09/03 00:38:06;;;;;;;;;1.00;1.00;;;;;15.20;68.64;100835.22;5013719;28;8886;-70
2021/09/03 00:41:02;;;;;;;;;2.00;2.00;;;;;15.14;68.54;100842.22;5015075;28;8844;-71
2021/09/03 00:43:58;;;;;;;;;2.00;2.00;;;;;15.11;69.71;100839.34;5013815;28;8871;-71
2021/09/03 00:46:53;;;;;;;;;2.00;2.00;;;;;14.83;67.37;100840.19;5014005;28;8886;-70
2021/09/03 00:49:49;;;;;;;;;1.67;1.67;;;;;15.11;69.56;100840.16;5013762;28;8865;-71
2021/09/03 00:52:44;;;;;;;;;1.00;1.00;;;;;15.24;70.21;100838.06;5013794;28;9113;-71
2021/09/03 00:55:40;;;;;;;;;2.00;2.00;;;;;15.16;69.08;100837.09;5013826;28;8940;-71
2021/09/03 00:58:35;;;;;;;;;1.00;1.00;;;;;15.35;68.12;100841.16;5013743;28;8864;-71
2021/09/03 01:01:31;;;;;;;;;1.00;1.00;;;;;14.81;67.93;100847.28;5013641;28;9025;-71
2021/09/03 01:04:27;;;;;;;;;1.33;1.33;;;;;15.19;70.52;100849.50;5013297;28;8852;-71
2021/09/03 01:07:23;;;;;;;;;2.00;2.00;;;;;15.25;68.65;100846.06;5023800;28;8915;-71
2021/09/03 01:10:20;;;;;;;;;3.00;3.00;;;;;15.06;67.95;100861.88;5033402;28;9173;-71
2021/09/03 01:13:15;;;;;;;;;2.00;2.00;;;;;15.04;69.11;100844.72;5032223;28;9024;-71
2021/09/03 01:16:11;;;;;;;;;2.00;2.00;;;;;14.98;68.06;100860.88;5033124;28;9083;-71
2021/09/03 01:19:07;;;;;;;;;1.00;1.00;;;;;14.83;67.92;100868.03;5033066;28;9001;-70
2021/09/03 01:22:03;;;;;;;;;1.00;1.00;;;;;14.84;68.59;100863.28;5031527;28;9150;-71
2021/09/03 01:24:59;;;;;;;;;1.67;1.67;;;;;14.65;69.67;100864.75;5019011;28;8990;-71
2021/09/03 01:27:55;;;;;;;;;2.00;2.00;;;;;14.90;69.50;100873.81;5011665;28;9262;-71
2021/09/03 01:30:50;;;;;;;;;2.00;2.00;;;;;14.75;69.46;100874.56;5013287;28;8992;-72
2021/09/03 01:33:48;;;;;;;;;3.00;3.00;;;;;14.48;69.50;100881.72;5012968;28;9136;-71
2021/09/03 01:36:43;;;;;;;;;1.33;1.33;;;;;14.39;70.23;100875.47;5017024;28;9118;-71
2021/09/03 01:39:39;;;;;;;;;2.00;2.00;;;;;14.54;69.74;100874.75;5032975;28;9256;-70
2021/09/03 01:42:35;;;;;;;;;1.67;1.67;;;;;14.48;72.23;100880.91;5032721;28;9366;-71
2021/09/03 01:45:30;;;;;;;;;1.33;1.00;;;;;14.52;70.43;100879.88;5032853;28;9077;-71
2021/09/03 01:48:26;;;;;;;;;2.33;2.33;;;;;14.63;71.01;100878.19;5030904;28;9202;-71
2021/09/03 01:51:22;;;;;;;;;2.00;2.00;;;;;14.74;70.34;100884.09;5032821;28;9421;-70
2021/09/03 01:54:17;;;;;;;;;1.67;1.67;;;;;14.57;69.75;100889.94;5032501;28;9089;-71
2021/09/03 01:57:13;;;;;;;;;3.67;3.67;;;;;14.39;69.76;100892.97;5031982;28;9317;-70
2021/09/03 02:00:10;;;;;;;;;3.00;3.00;;;;;14.49;70.95;100905.59;5012491;28;9296;-70
2021/09/03 02:03:05;;;;;;;;;3.33;3.33;;;;;14.35;70.92;100905.97;5012651;28;9319;-71
2021/09/03 02:06:01;;;;;;;;;3.00;3.00;;;;;14.55;71.27;100901.41;5012740;28;9196;-71
2021/09/03 02:08:56;;;;;;;;;3.00;3.00;;;;;14.39;70.86;100909.66;5012764;28;9326;-71
2021/09/03 02:11:52;;;;;;;;;2.00;2.00;;;;;14.34;69.41;100911.91;5012815;28;9197;-70
2021/09/03 02:14:48;;;;;;;;;2.33;2.33;;;;;14.43;71.39;100910.59;5012721;28;9244;-71
2021/09/03 02:17:43;;;;;;;;;1.33;1.33;;;;;14.51;69.97;100921.97;5012518;28;9093;-71
2021/09/03 02:20:39;;;;;;;;;1.00;1.00;;;;;14.46;70.70;100926.59;5012729;28;9183;-71
2021/09/03 02:23:34;;;;;;;;;2.00;2.00;;;;;14.58;71.08;100923.00;5016866;28;9301;-71
2021/09/03 02:26:30;;;;;;;;;2.67;2.00;;;;;14.71;71.20;100920.97;5036522;28;9971;-71
2021/09/03 02:29:26;;;;;;;;;1.67;1.67;;;;;14.50;69.42;100935.09;5025113;28;9274;-70
2021/09/03 02:32:22;;;;;;;;;1.00;1.00;;;;;14.55;70.89;100934.81;5016960;28;9182;-72
2021/09/03 02:35:17;;;;;;;;;2.00;2.00;;;;;14.51;70.28;100936.69;5016367;28;9167;-72
2021/09/03 02:38:14;;;;;;;;;1.67;1.67;;;;;14.58;70.35;100948.06;5016325;28;9184;-71
2021/09/03 02:41:09;;;;;;;;;3.33;3.33;;;;;14.24;69.39;100957.69;5014820;28;9156;-71
2021/09/03 02:44:05;;;;;;;;;1.67;1.67;;;;;14.27;71.35;100945.88;5009310;28;9247;-71
2021/09/03 02:47:01;;;;;;;;;1.00;1.00;;;;;14.22;71.10;100953.63;4996554;28;9370;-71
2021/09/03 02:49:56;;;;;;;;;1.00;1.00;;;;;14.11;70.62;100956.91;4996469;28;9361;-71
2021/09/03 02:52:52;;;;;;;;;2.00;2.00;;;;;14.33;71.69;100965.91;4996444;28;9005;-71
2021/09/03 02:55:48;;;;;;;;;1.00;1.00;;;;;14.41;71.99;100967.75;4996492;28;9186;-71
2021/09/03 02:58:43;;;;;;;;;1.00;1.00;;;;;14.08;70.04;100976.22;5002854;28;9292;-71
2021/09/03 03:01:39;;;;;;;;;0.67;0.67;;;;;14.05;71.80;100977.75;5011607;28;9283;-71
2021/09/03 03:04:34;;;;;;;;;1.00;1.00;;;;;14.20;71.19;100979.03;5015250;28;9380;-70
2021/09/03 03:07:30;;;;;;;;;0.33;0.33;;;;;14.18;70.88;100984.09;5015871;28;9274;-71
2021/09/03 03:10:26;;;;;;;;;1.00;1.00;;;;;14.14;70.72;100997.91;5015606;28;9078;-70
2021/09/03 03:13:25;;;;;;;;;1.00;1.00;;;;;14.16;71.00;100990.03;5015573;28;9201;-71
2021/09/03 03:16:20;;;;;;;;;1.00;1.00;;;;;14.33;72.80;100990.94;5015740;28;9261;-71
2021/09/03 03:19:16;;;;;;;;;1.00;1.00;;;;;14.54;71.03;100991.66;5015491;28;9171;-71
2021/09/03 03:22:11;;;;;;;;;2.67;2.67;;;;;14.58;71.85;100998.16;5015477;28;9085;-71
2021/09/03 03:25:07;;;;;;;;;1.00;1.00;;;;;14.45;69.71;100996.50;5015542;28;9456;-71
2021/09/03 03:28:03;;;;;;;;;1.00;1.00;;;;;14.54;70.79;100993.63;5014485;28;9161;-71
2021/09/03 03:30:59;;;;;;;;;1.00;1.00;;;;;14.54;71.14;100988.88;5015487;28;9186;-70
2021/09/03 03:33:55;;;;;;;;;2.33;2.33;;;;;14.50;72.80;100990.75;5015047;28;9110;-71
2021/09/03 03:36:50;;;;;;;;;6.00;6.00;;;;;14.41;73.33;100992.78;5014732;28;9099;-71
2021/09/03 03:39:46;;;;;;;;;1.67;1.67;;;;;14.10;69.84;100999.75;5015114;28;9973;-71
2021/09/03 03:42:42;;;;;;;;;2.00;2.00;;;;;14.21;70.43;101004.88;5015108;28;9168;-71
2021/09/03 03:45:37;;;;;;;;;2.00;2.00;;;;;14.27;70.95;101006.25;5016218;28;9266;-71
2021/09/03 03:48:33;;;;;;;;;3.00;3.00;;;;;14.34;71.40;101014.84;5014822;28;9362;-71
2021/09/03 03:51:28;;;;;;;;;2.00;2.00;;;;;14.29;71.25;101018.66;5016492;28;9475;-71
2021/09/03 03:54:24;;;;;;;;;1.00;1.00;;;;;14.39;70.99;101026.53;4995237;28;9004;-70
2021/09/03 03:57:20;;;;;;;;;0.33;0.33;;;;;14.23;71.19;101033.13;4995376;28;9172;-70
2021/09/03 04:00:16;;;;;;;;;1.67;1.67;;;;;14.17;70.69;101040.91;4993812;28;9085;-70
2021/09/03 04:03:12;;;;;;;;;8.67;5.67;;;;;14.56;74.52;101033.84;4997342;28;9317;-71
2021/09/03 04:06:08;;;;;;;;;2.00;2.00;;;;;14.56;73.12;101036.63;5009550;28;9397;-70
2021/09/03 04:09:04;;;;;;;;;1.00;1.00;;;;;14.57;72.17;101038.28;4995065;28;9088;-71
2021/09/03 04:12:00;;;;;;;;;1.33;1.33;;;;;14.55;72.03;101043.34;5008395;28;9006;-71
2021/09/03 04:14:55;;;;;;;;;1.00;1.00;;;;;14.63;70.09;101050.78;5015150;28;9191;-70
2021/09/03 04:17:51;;;;;;;;;1.67;1.67;;;;;14.83;73.41;101053.78;5008187;28;9216;-70
2021/09/03 04:20:47;;;;;;;;;3.00;2.00;;;;;15.02;70.92;101060.31;4999559;28;9249;-70
2021/09/03 04:23:43;;;;;;;;;3.00;3.00;;;;;14.95;70.73;101062.09;5025382;28;9063;-70
2021/09/03 04:26:38;;;;;;;;;1.25;1.25;;;;;15.21;70.86;101067.25;5014163;28;9157;-71
2021/09/03 04:29:34;;;;;;;;;2.33;2.33;;;;;15.06;70.04;101074.38;5026810;28;8942;-70
2021/09/03 04:32:29;;;;;;;;;1.00;1.00;;;;;14.85;68.32;101070.94;5018600;28;9013;-72
2021/09/03 04:35:26;;;;;;;;;1.33;1.33;;;;;14.88;68.59;101075.81;5034021;28;9080;-72
2021/09/03 04:38:08;;;;;;;;;1.00;1.00;;;;;15.29;70.71;101085.81;5034529;28;8939;-73
2021/09/03 04:41:03;;;;;;;;;5.67;5.33;;;;;14.72;68.21;101072.91;5033584;28;8853;-72
2021/09/03 04:43:59;;;;;;;;;2.00;2.00;;;;;14.81;70.68;101083.94;5033390;28;9009;-72
2021/09/03 04:46:54;;;;;;;;;2.00;2.00;;;;;14.98;68.17;101083.69;5033527;28;9038;-72
2021/09/03 04:49:50;;;;;;;;;2.00;2.00;;;;;15.29;67.61;101094.97;5033464;28;9008;-72
2021/09/03 04:52:46;;;;;;;;;4.00;4.00;;;;;15.54;69.78;101090.13;5033472;28;9008;-73
2021/09/03 04:55:41;;;;;;;;;1.67;1.67;;;;;15.21;67.19;101095.94;5032588;28;9062;-72
2021/09/03 04:58:37;;;;;;;;;1.00;1.00;;;;;15.46;68.01;101090.28;5033448;28;8929;-74
2021/09/03 05:01:32;;;;;;;;;1.33;1.33;;;;;14.92;66.27;101088.69;5033378;28;9072;-73
2021/09/03 05:04:28;;;;;;;;;2.00;2.00;;;;;15.22;66.72;101083.63;5033255;28;9016;-72
2021/09/03 05:07:23;;;;;;;;;2.75;2.75;;;;;15.30;67.00;101082.66;5044942;28;8999;-73
2021/09/03 05:10:19;;;;;;;;;3.00;3.00;;;;;15.54;66.44;101087.34;5033173;28;8849;-73
2021/09/03 05:13:15;;;;;;;;;3.00;3.00;;;;;15.70;67.07;101089.38;5031580;28;9030;-73
2021/09/03 05:16:10;;;;;;;;;2.00;2.00;;;;;15.84;67.07;101095.34;5033024;28;9052;-73
2021/09/03 05:19:07;;;;;;;;;2.75;2.75;;;;;16.04;66.23;101108.28;5031609;28;8852;-74
2021/09/03 05:22:03;;;;;;;;;2.50;2.50;;;;;16.12;65.79;101117.66;5033115;28;8845;-73
2021/09/03 05:25:00;;;;;;;;;3.00;3.00;;;;;16.33;65.34;101126.59;5032911;28;8833;-73
2021/09/03 05:27:55;;;;;;;;;3.00;3.00;;;;;16.54;65.32;101119.91;5032112;28;8877;-73
2021/09/03 05:30:51;;;;;;;;;2.25;2.25;;;;;16.68;63.42;101129.44;5033044;28;8879;-73
2021/09/03 05:33:46;;;;;;;;;1.00;1.00;;;;;16.64;64.30;101133.34;5032582;28;8867;-73
2021/09/03 05:36:42;;;;;;;;;2.00;2.00;;;;;16.55;62.45;101138.28;5032898;28;8830;-73
2021/09/03 05:39:37;;;;;;;;;1.00;1.00;;;;;16.63;62.35;101140.88;5031269;28;8849;-72
2021/09/03 05:42:33;;;;;;;;;1.75;1.75;;;;;16.54;62.32;101145.84;5032664;28;8829;-73
2021/09/03 05:45:29;;;;;;;;;2.00;2.00;;;;;16.85;63.93;101145.03;5032549;28;8857;-73
2021/09/03 05:48:25;;;;;;;;;2.00;2.00;;;;;16.89;62.55;101145.94;5032537;28;8857;-73
2021/09/03 05:51:20;;;;;;;;;2.25;2.25;;;;;17.06;60.80;101158.72;5032783;28;9681;-73
2021/09/03 05:54:16;;;;;;;;;2.00;2.00;;;;;16.63;61.45;101148.44;5032401;28;8825;-72
2021/09/03 05:57:11;;;;;;;;;2.50;2.50;;;;;16.80;60.76;101158.50;5030941;28;9579;-73
2021/09/03 06:00:08;;;;;;;;;2.00;2.00;;;;;16.63;60.24;101159.59;5032036;28;8841;-73
2021/09/03 06:03:03;;;;;;;;;2.75;2.75;;;;;17.15;61.56;101164.91;5031538;28;8869;-73
2021/09/03 06:06:00;;;;;;;;;3.75;3.00;;;;;17.26;59.83;101159.56;5032358;28;8849;-73
2021/09/03 06:08:55;;;;;;;;;1.50;1.50;;;;;17.06;60.29;101155.91;5031658;28;8884;-74
2021/09/03 06:11:52;;;;;;;;;1.00;1.00;;;;;17.22;61.62;101155.88;5030869;28;8837;-74
2021/09/03 06:14:48;;;;;;;;;2.00;2.00;;;;;17.39;58.40;101165.81;5032320;28;8837;-73
2021/09/03 06:17:43;;;;;;;;;4.00;3.00;;;;;17.41;58.86;101163.50;5032377;28;8906;-73
2021/09/03 06:20:39;;;;;;;;;1.50;1.50;;;;;17.31;58.41;101180.81;5032182;28;8956;-73
2021/09/03 06:23:34;;;;;;;;;0.00;0.00;;;;;17.62;59.51;101191.09;5031946;28;9692;-73
2021/09/03 06:26:30;;;;;;;;;2.75;2.75;;;;;17.69;58.82;101188.44;5032516;28;8833;-73
2021/09/03 06:29:45;;;;;;;;;2.50;2.50;;;;;17.62;57.23;101200.28;5031794;28;8845;-73
2021/09/03 06:32:40;;;;;;;;;1.00;1.00;;;;;17.85;56.43;101208.81;5032005;28;8854;-74
2021/09/03 06:35:36;;;;;;;;;0.50;0.50;;;;;18.20;58.50;101214.31;5032259;28;8833;-74
2021/09/03 06:38:32;;;;;;;;;1.00;1.00;;;;;18.44;56.49;101221.56;5032229;28;8938;-73
2021/09/03 06:41:27;;;;;;;;;1.75;1.75;;;;;18.38;53.68;101237.06;5032141;28;8830;-73
2021/09/03 06:44:23;;;;;;;;;1.00;1.00;;;;;18.12;53.46;101229.38;5032063;28;8853;-72
2021/09/03 06:47:21;;;;;;;;;1.00;1.00;;;;;18.46;55.15;101224.81;5032261;28;9591;-74
2021/09/03 06:50:18;;;;;;;;;2.00;2.00;;;;;18.16;54.99;101238.63;5031092;28;8861;-73
2021/09/03 06:53:14;;;;;;;;;1.00;1.00;;;;;18.42;54.88;101243.56;5032103;28;8910;-71
2021/09/03 06:56:09;;;;;;;;;1.75;1.75;;;;;18.56;54.52;101226.22;5032009;28;8837;-72
2021/09/03 06:59:05;;;;;;;;;1.75;1.75;;;;;18.55;52.47;101218.97;5031971;28;8865;-71
2021/09/03 07:02:00;;;;;;;;;3.00;3.00;;;;;18.53;52.51;101230.53;5030380;28;8833;-72
2021/09/03 07:04:56;;;;;;;;;3.00;3.00;;;;;18.80;51.06;101234.28;5031930;28;9567;-71
2021/09/03 07:07:51;;;;;;;;;4.75;4.75;;;;;18.53;50.44;101238.94;5031803;28;8849;-71
2021/09/03 07:10:47;;;;;;;;;2.00;2.00;;;;;18.77;50.65;101232.19;5032019;28;8864;-72
2021/09/03 07:13:43;;;;;;;;;2.00;2.00;;;;;18.93;50.41;101236.88;5033817;28;8864;-72
2021/09/03 07:16:38;;;;;;;;;3.00;3.00;;;;;18.71;51.90;101230.91;5035404;28;8896;-72
2021/09/03 07:19:34;;;;;;;;;2.00;2.00;;;;;18.79;50.07;101238.25;5035293;28;8845;-71
2021/09/03 07:22:30;;;;;;;;;2.00;2.00;;;;;18.59;49.25;101243.06;5033388;28;8853;-70
2021/09/03 07:25:25;;;;;;;;;3.00;3.00;;;;;19.07;51.47;101248.31;5015102;28;8904;-67
2021/09/03 07:28:21;;;;;;;;;5.00;5.00;;;;;19.17;48.74;101242.09;4995751;28;9719;-68
2021/09/03 07:31:16;;;;;;;;;4.00;4.00;;;;;19.29;49.37;101252.28;4995544;28;8858;-68
2021/09/03 07:34:12;;;;;;;;;5.00;5.00;;;;;19.16;48.64;101244.06;5013447;28;8839;-68
2021/09/03 07:37:07;;;;;;;;;1.75;1.75;;;;;19.12;48.44;101251.63;5003765;28;8848;-68
2021/09/03 07:40:04;;;;;;;;;2.00;2.00;;;;;19.70;48.17;101256.13;5031575;28;8845;-68
2021/09/03 07:43:08;;;;;;;;;3.50;3.50;;;;;19.49;48.48;101248.19;5034891;28;8837;-67
2021/09/03 07:46:04;;;;;;;;;53.33;44.33;;;;;19.49;46.46;101248.19;5014170;28;8827;-67
2021/09/03 07:48:59;;;;;;;;;4.00;4.00;;;;;19.50;47.81;101252.63;5031304;28;9388;-67
2021/09/03 07:51:55;;;;;;;;;23.50;23.50;;;;;19.56;49.46;101247.50;5012429;28;8856;-67
2021/09/03 07:54:51;;;;;;;;;9.00;9.00;;;;;19.81;46.95;101247.88;5022052;28;9543;-67
2021/09/03 07:57:46;;;;;;;;;8.50;8.50;;;;;19.77;46.80;101247.00;5034029;28;9772;-67
2021/09/03 08:00:42;;;;;;;;;4.50;4.50;;;;;19.68;46.57;101252.91;5014610;28;8852;-67
2021/09/03 08:03:37;;;;;;;;;11.75;11.75;;;;;19.62;48.14;101246.78;5014469;28;8863;-67
2021/09/03 08:06:33;;;;;;;;;6.00;6.00;;;;;19.85;44.93;101234.69;5013124;28;8909;-68
2021/09/03 08:09:29;;;;;;;;;6.50;6.50;;;;;19.99;44.14;101244.09;5015469;28;8902;-67
2021/09/03 08:12:24;;;;;;;;;7.50;7.50;;;;;20.11;44.38;101245.03;5025648;28;8968;-71
2021/09/03 08:15:20;;;;;;;;;6.50;6.00;;;;;20.46;45.49;101261.50;5029364;28;8839;-71
2021/09/03 08:18:15;;;;;;;;;5.00;5.00;;;;;20.81;44.10;101247.84;5014413;28;8965;-71
2021/09/03 08:21:11;;;;;;;;;2.00;2.00;;;;;20.76;41.62;101256.59;5005638;28;9677;-71
2021/09/03 08:24:07;;;;;;;;;5.00;5.00;;;;;20.22;42.64;101257.19;5011638;28;9715;-71
2021/09/03 08:27:03;;;;;;;;;3.25;3.25;;;;;20.64;42.21;101247.66;4999233;28;8843;-72
2021/09/03 08:29:59;;;;;;;;;5.50;5.50;;;;;20.98;42.83;101251.19;5014126;28;8867;-72
2021/09/03 08:32:55;;;;;;;;;2.25;2.25;;;;;20.99;40.86;101250.78;5011818;28;8875;-72
2021/09/03 08:35:51;;;;;;;;;2.75;2.00;;;;;20.71;41.54;101254.19;4995334;28;8853;-72
2021/09/03 08:38:47;;;;;;;;;4.75;4.75;;;;;20.94;41.06;101244.75;5006523;28;9591;-73
2021/09/03 08:41:42;;;;;;;;;2.00;2.00;;;;;21.40;40.83;101250.75;4998026;28;8866;-72
2021/09/03 08:44:38;;;;;;;;;4.50;4.25;;;;;21.48;42.11;101241.16;5002876;28;8828;-72
2021/09/03 08:47:34;;;;;;;;;1.00;1.00;;;;;21.37;39.63;101252.34;5016094;28;8865;-72
2021/09/03 08:50:29;;;;;;;;;8.25;8.25;;;;;21.33;42.15;101262.78;5033576;28;8845;-72
2021/09/03 08:53:25;;;;;;;;;30.75;28.75;;;;;21.38;39.79;101247.50;5033373;28;8854;-72
2021/09/03 08:56:22;;;;;;;;;15.75;15.75;;;;;21.01;38.08;101270.09;5027974;28;8847;-72
2021/09/03 08:59:17;;;;;;;;;0.00;0.00;;;;;21.17;38.66;101252.97;5006259;28;8973;-73
2021/09/03 09:02:19;;;;;;;;;31.25;30.25;;;;;21.17;39.93;101255.78;5002077;28;9573;-71
2021/09/03 09:05:15;;;;;;;;;7.25;7.25;;;;;21.77;38.63;101261.00;5003058;28;8878;-72
2021/09/03 09:08:12;;;;;;;;;43.75;37.50;;;;;22.06;38.60;101259.16;4994614;28;8881;-73
2021/09/03 09:11:12;;;;;;;;;0.60;0.60;;;;;22.07;35.77;101258.75;4993822;28;8936;-72
2021/09/03 09:14:08;;;;;;;;;2.50;2.50;;;;;21.35;37.04;101268.81;4993698;28;9672;-71
2021/09/03 09:17:04;;;;;;;;;30.75;30.00;;;;;21.74;40.69;101268.25;4992243;28;8899;-72
2021/09/03 09:20:00;;;;;;;;;4.50;4.50;;;;;21.68;37.59;101267.00;4992258;28;8850;-72
2021/09/03 09:22:58;;;;;;;;;1.00;1.00;;;;;21.72;36.17;101265.03;4995968;28;8980;-71
2021/09/03 09:25:57;;;;;;;;;0.00;0.00;;;;;22.45;35.60;101260.13;4993552;28;8873;-72
2021/09/03 09:28:54;;;;;;;;;5.00;5.00;;;;;22.43;34.59;101270.19;4994610;28;8889;-71
2021/09/03 09:31:53;;;;;;;;;9.75;9.75;;;;;22.75;35.91;101265.41;5013372;28;8847;-72
2021/09/03 09:34:48;;;;;;;;;4.40;4.20;;;;;22.43;33.99;101265.34;5010514;28;9568;-73
2021/09/03 09:37:52;;;;;;;;;3.60;3.60;;;;;22.11;32.94;101272.91;4998921;28;8875;-74
2021/09/03 09:40:53;;;;;;;;;2.00;2.00;;;;;22.83;34.47;101262.63;5011870;28;8856;-74
2021/09/03 09:43:48;;;;;;;;;2.00;2.00;;;;;22.99;34.56;101265.88;5007981;28;8840;-74
2021/09/03 09:47:08;;;;;;;;;2.80;2.80;;;;;23.32;38.07;101270.31;5006333;28;8839;-75
2021/09/03 09:50:26;;;;;;;;;0.00;0.00;;;;;23.57;33.73;101262.63;5011454;28;8934;-74
2021/09/03 09:53:21;;;;;;;;;0.80;0.80;;;;;23.91;32.83;101261.34;5004691;28;8964;-74
2021/09/03 09:56:17;;;;;;;;;0.00;0.00;;;;;23.50;31.84;101268.28;4993716;28;8850;-75
2021/09/03 09:59:14;;;;;;;;;1.20;1.20;;;;;23.12;32.41;101286.03;4994688;28;8851;-74
2021/09/03 10:02:11;;;;;;;;;0.40;0.40;;;;;23.72;32.00;101276.75;4994769;28;8842;-72
2021/09/03 10:05:07;;;;;;;;;0.00;0.00;;;;;23.16;30.96;101270.75;4999036;28;8840;-74
2021/09/03 10:08:04;;;;;;;;;0.00;0.00;;;;;23.53;31.95;101273.09;5009423;28;8842;-74
2021/09/03 10:11:00;;;;;;;;;3.00;3.00;;;;;23.30;33.55;101284.00;4993604;28;8870;-74
2021/09/03 10:13:56;;;;;;;;;1.00;1.00;;;;;23.03;33.79;101281.59;4999376;28;8948;-72
2021/09/03 10:16:53;;;;;;;;;0.60;0.60;;;;;22.93;33.55;101276.78;5015712;28;8859;-72
2021/09/03 10:19:51;;;;;;;;;0.80;0.80;;;;;22.50;33.57;101270.22;5014488;28;8840;-73
2021/09/03 10:22:49;;;;;;;;;0.40;0.40;;;;;22.90;35.55;101280.38;5010795;28;8859;-73
2021/09/03 10:25:52;;;;;;;;;1.20;1.20;;;;;23.46;34.62;101250.56;5012141;28;8835;-72
2021/09/03 10:28:48;;;;;;;;;0.00;0.00;;;;;23.86;32.87;101268.25;5012744;28;8871;-72
2021/09/03 10:32:13;;;;;;;;;0.80;0.80;;;;;24.31;34.58;101271.28;5010773;28;8974;-73
2021/09/03 10:35:21;;;;;;;;;0.00;0.00;;;;;24.08;31.80;101269.78;5000468;28;9023;-72
2021/09/03 10:38:31;;;;;;;;;0.60;0.60;;;;;23.64;31.34;101275.16;5005866;28;8843;-72
2021/09/03 10:41:48;;;;;;;;;0.00;0.00;;;;;24.32;31.31;101273.72;4995215;28;8885;-74
2021/09/03 10:45:04;;;;;;;;;0.00;0.00;;;;;24.67;30.32;101269.06;4995012;28;9596;-72
2021/09/03 10:48:08;;;;;;;;;0.60;0.60;;;;;24.78;32.16;101267.00;4995741;28;8874;-73
2021/09/03 10:51:05;;;;;;;;;0.00;0.00;;;;;24.85;30.54;101266.94;5017137;28;8846;-72
2021/09/03 10:54:19;;;;;;;;;0.40;0.40;;;;;25.36;31.15;101261.69;5015986;28;8849;-72
2021/09/03 10:57:16;;;;;;;;;0.80;0.80;;;;;25.01;27.97;101271.28;5016038;28;8864;-73
2021/09/03 11:00:17;;;;;;;;;1.60;1.60;;;;;24.33;31.35;101271.72;5005812;28;9616;-74
2021/09/03 11:03:44;;;;;;;;;2.20;2.20;;;;;23.99;32.54;101260.09;5013491;28;8828;-74
2021/09/03 11:06:49;;;;;;;;;11.20;10.80;;;;;24.13;32.61;101257.22;5008294;28;9580;-74
2021/09/03 11:09:46;;;;;;;;;3.80;3.80;;;;;24.57;31.04;101262.28;4997588;28;8886;-73
2021/09/03 11:12:49;;;;;;;;;0.20;0.20;;;;;24.98;29.65;101243.78;5002007;28;8864;-72
2021/09/03 11:15:45;;;;;;;;;0.40;0.40;;;;;25.48;29.46;101256.31;5018970;28;8848;-74
2021/09/03 11:19:19;;;;;;;;;7.20;5.60;;;;;24.93;28.95;101259.22;5015329;28;8898;-74
2021/09/03 11:22:17;;;;;;;;;4.20;4.20;;;;;24.30;33.16;101249.88;5029601;28;8867;-71
2021/09/03 11:25:13;;;;;;;;;0.80;0.80;;;;;23.88;31.53;101257.31;4996924;28;8846;-71
